AEE1234 LKPR-LOWI
Flight info
| Callsign | AEE1234 |
|---|---|
| Flight time | 0h 51m |
| Altitude | 30000 |
| Route | DOBEN5B DOBEN DCT RUDAP P31 DOSEL/N0414F290 M736 TULSI TULSI3A |
| Aircraft | A320/M-SDE3FGHIRWY/LB1 |
Departure
| Time | 2026-05-06 17:44 |
|---|---|
| Airport | Václav Havel Airport Prague (LKPR) |
Arrival
| Time | 2026-05-06 18:35 |
|---|---|
| Airport | Innsbruck Airport (LOWI) |
| Time | Latitude | Longitude | Altitude | Speed | Heading |
|---|---|---|---|---|---|
| 2026-05-06 17:02 | 50.10672 | 14.26423 | 1172 ft | 0 kts | 214° |
| 2026-05-06 17:24 | 50.10681 | 14.26433 | 1171 ft | 4 kts | 216° |
| 2026-05-06 17:25 | 50.10702 | 14.26459 | 1170 ft | 4 kts | 225° |
| 2026-05-06 17:25 | 50.10719 | 14.26491 | 1169 ft | 4 kts | 245° |
| 2026-05-06 17:25 | 50.10723 | 14.26525 | 1171 ft | 3 kts | 300° |
| 2026-05-06 17:25 | 50.10719 | 14.26535 | 1169 ft | 0 kts | 304° |
| 2026-05-06 17:34 | 50.10734 | 14.26503 | 1169 ft | 7 kts | 304° |
| 2026-05-06 17:35 | 50.10766 | 14.26430 | 1172 ft | 11 kts | 304° |
| 2026-05-06 17:35 | 50.10815 | 14.26308 | 1172 ft | 15 kts | 296° |
| 2026-05-06 17:35 | 50.10859 | 14.26151 | 1173 ft | 15 kts | 268° |
| 2026-05-06 17:36 | 50.10828 | 14.26115 | 1173 ft | 4 kts | 164° |
| 2026-05-06 17:36 | 50.10826 | 14.26115 | 1173 ft | 1 kts | 164° |
| 2026-05-06 17:36 | 50.10810 | 14.26136 | 1172 ft | 6 kts | 135° |
| 2026-05-06 17:36 | 50.10772 | 14.26187 | 1173 ft | 8 kts | 162° |
| 2026-05-06 17:37 | 50.10718 | 14.26150 | 1173 ft | 11 kts | 211° |
| 2026-05-06 17:37 | 50.10629 | 14.26072 | 1172 ft | 17 kts | 210° |
| 2026-05-06 17:37 | 50.10553 | 14.26015 | 1174 ft | 10 kts | 201° |
| 2026-05-06 17:37 | 50.10484 | 14.26021 | 1173 ft | 10 kts | 143° |
| 2026-05-06 17:38 | 50.10433 | 14.26124 | 1174 ft | 16 kts | 128° |
| 2026-05-06 17:38 | 50.10321 | 14.26348 | 1173 ft | 23 kts | 127° |
| 2026-05-06 17:38 | 50.10255 | 14.26485 | 1177 ft | 24 kts | 127° |
| 2026-05-06 17:38 | 50.10148 | 14.26694 | 1180 ft | 25 kts | 131° |
| 2026-05-06 17:39 | 50.10050 | 14.26889 | 1192 ft | 21 kts | 124° |
| 2026-05-06 17:39 | 50.09967 | 14.27079 | 1198 ft | 21 kts | 126° |
| 2026-05-06 17:39 | 50.09879 | 14.27263 | 1202 ft | 22 kts | 127° |
| 2026-05-06 17:39 | 50.09777 | 14.27439 | 1205 ft | 22 kts | 135° |
| 2026-05-06 17:40 | 50.09664 | 14.27607 | 1208 ft | 23 kts | 136° |
| 2026-05-06 17:40 | 50.09552 | 14.27781 | 1212 ft | 23 kts | 135° |
| 2026-05-06 17:40 | 50.09438 | 14.27956 | 1216 ft | 23 kts | 135° |
| 2026-05-06 17:40 | 50.09317 | 14.28142 | 1215 ft | 26 kts | 135° |
| 2026-05-06 17:41 | 50.09181 | 14.28275 | 1211 ft | 19 kts | 182° |
| 2026-05-06 17:41 | 50.09162 | 14.28269 | 1211 ft | 0 kts | 197° |
| 2026-05-06 17:41 | 50.09137 | 14.28253 | 1211 ft | 8 kts | 211° |
| 2026-05-06 17:42 | 50.09097 | 14.28156 | 1209 ft | 16 kts | 252° |
| 2026-05-06 17:42 | 50.09115 | 14.28021 | 1209 ft | 0 kts | 304° |
| 2026-05-06 17:43 | 50.09116 | 14.28019 | 1209 ft | 3 kts | 304° |
| 2026-05-06 17:43 | 50.09297 | 14.27646 | 1213 ft | 90 kts | 307° |
| 2026-05-06 17:43 | 50.09820 | 14.26581 | 1207 ft | 149 kts | 308° |
| 2026-05-06 17:43 | 50.10509 | 14.25197 | 1518 ft | 164 kts | 308° |
| 2026-05-06 17:44 | 50.11202 | 14.23729 | 2090 ft | 165 kts | 306° |
| 2026-05-06 17:44 | 50.11827 | 14.22415 | 2604 ft | 165 kts | 306° |
| 2026-05-06 17:44 | 50.12510 | 14.20995 | 3137 ft | 169 kts | 306° |
| 2026-05-06 17:44 | 50.13182 | 14.19598 | 3409 ft | 190 kts | 306° |
| 2026-05-06 17:45 | 50.14020 | 14.17854 | 3725 ft | 212 kts | 306° |
| 2026-05-06 17:45 | 50.14946 | 14.15925 | 4121 ft | 232 kts | 305° |
| 2026-05-06 17:45 | 50.15950 | 14.13828 | 4685 ft | 247 kts | 305° |
| 2026-05-06 17:45 | 50.17022 | 14.11591 | 4953 ft | 268 kts | 304° |
| 2026-05-06 17:46 | 50.17845 | 14.08981 | 5200 ft | 273 kts | 280° |
| 2026-05-06 17:46 | 50.17879 | 14.06057 | 6189 ft | 270 kts | 257° |
| 2026-05-06 17:46 | 50.17160 | 14.03389 | 7137 ft | 268 kts | 232° |
| 2026-05-06 17:46 | 50.15808 | 14.01402 | 8096 ft | 269 kts | 216° |
| 2026-05-06 17:47 | 50.14302 | 13.99666 | 9088 ft | 270 kts | 216° |
| 2026-05-06 17:47 | 50.12660 | 13.98216 | 9983 ft | 273 kts | 202° |
| 2026-05-06 17:47 | 50.10787 | 13.97483 | 10599 ft | 289 kts | 188° |
| 2026-05-06 17:47 | 50.08695 | 13.97478 | 10914 ft | 311 kts | 180° |
| 2026-05-06 17:48 | 50.06703 | 13.97588 | 11462 ft | 319 kts | 180° |
| 2026-05-06 17:48 | 50.04469 | 13.97714 | 11686 ft | 322 kts | 180° |
| 2026-05-06 17:48 | 50.02217 | 13.97834 | 12094 ft | 326 kts | 181° |
| 2026-05-06 17:48 | 49.99953 | 13.97739 | 12928 ft | 326 kts | 191° |
| 2026-05-06 17:49 | 49.97722 | 13.97072 | 13721 ft | 329 kts | 191° |
| 2026-05-06 17:49 | 49.95424 | 13.96790 | 14445 ft | 333 kts | 185° |
| 2026-05-06 17:49 | 49.93098 | 13.96631 | 15187 ft | 336 kts | 185° |
| 2026-05-06 17:49 | 49.90753 | 13.96477 | 15636 ft | 337 kts | 185° |
| 2026-05-06 17:50 | 49.88408 | 13.96319 | 16014 ft | 338 kts | 185° |
| 2026-05-06 17:50 | 49.86105 | 13.95736 | 16398 ft | 335 kts | 201° |
| 2026-05-06 17:50 | 49.84059 | 13.94030 | 16798 ft | 335 kts | 217° |
| 2026-05-06 17:50 | 49.82181 | 13.91885 | 17192 ft | 336 kts | 217° |
| 2026-05-06 17:51 | 49.80302 | 13.89732 | 17595 ft | 338 kts | 217° |
| 2026-05-06 17:51 | 49.78567 | 13.87745 | 17971 ft | 339 kts | 217° |
| 2026-05-06 17:51 | 49.76735 | 13.85654 | 18322 ft | 341 kts | 216° |
| 2026-05-06 17:51 | 49.74902 | 13.83569 | 18659 ft | 342 kts | 216° |
| 2026-05-06 17:52 | 49.72982 | 13.81388 | 19019 ft | 343 kts | 216° |
| 2026-05-06 17:52 | 49.71055 | 13.79201 | 19381 ft | 344 kts | 216° |
| 2026-05-06 17:52 | 49.69121 | 13.77008 | 19753 ft | 345 kts | 216° |
| 2026-05-06 17:52 | 49.67180 | 13.74808 | 20121 ft | 347 kts | 216° |
| 2026-05-06 17:53 | 49.65228 | 13.72597 | 20565 ft | 350 kts | 216° |
| 2026-05-06 17:53 | 49.63264 | 13.70374 | 21386 ft | 346 kts | 216° |
| 2026-05-06 17:53 | 49.61335 | 13.68191 | 22183 ft | 347 kts | 216° |
| 2026-05-06 17:53 | 49.59361 | 13.65960 | 22604 ft | 355 kts | 216° |
| 2026-05-06 17:54 | 49.57354 | 13.63698 | 23238 ft | 359 kts | 216° |
| 2026-05-06 17:54 | 49.55327 | 13.61417 | 23787 ft | 362 kts | 216° |
| 2026-05-06 17:54 | 49.53283 | 13.59118 | 24336 ft | 365 kts | 216° |
| 2026-05-06 17:54 | 49.51218 | 13.56796 | 24882 ft | 368 kts | 216° |
| 2026-05-06 17:55 | 49.49142 | 13.54465 | 25411 ft | 371 kts | 216° |
| 2026-05-06 17:55 | 49.47050 | 13.52120 | 25957 ft | 374 kts | 216° |
| 2026-05-06 17:55 | 49.44945 | 13.49757 | 26478 ft | 377 kts | 217° |
| 2026-05-06 17:55 | 49.42821 | 13.47371 | 26998 ft | 379 kts | 217° |
| 2026-05-06 17:56 | 49.40678 | 13.44969 | 27524 ft | 382 kts | 217° |
| 2026-05-06 17:56 | 49.38526 | 13.42563 | 28064 ft | 383 kts | 217° |
| 2026-05-06 17:56 | 49.36385 | 13.40181 | 28573 ft | 385 kts | 217° |
| 2026-05-06 17:56 | 49.34207 | 13.37761 | 29080 ft | 388 kts | 217° |
| 2026-05-06 17:57 | 49.32018 | 13.35328 | 29566 ft | 390 kts | 217° |
| 2026-05-06 17:57 | 49.29818 | 13.32882 | 29724 ft | 391 kts | 217° |
| 2026-05-06 17:57 | 49.25424 | 13.28004 | 29737 ft | 389 kts | 217° |
| 2026-05-06 17:58 | 49.20680 | 13.23970 | 29721 ft | 391 kts | 208° |
| 2026-05-06 17:58 | 49.15762 | 13.20286 | 29734 ft | 401 kts | 208° |
| 2026-05-06 17:59 | 49.10670 | 13.16466 | 29728 ft | 411 kts | 208° |
| 2026-05-06 17:59 | 49.05516 | 13.12613 | 29723 ft | 413 kts | 208° |
| 2026-05-06 18:00 | 49.00387 | 13.08796 | 29720 ft | 413 kts | 208° |
| 2026-05-06 18:00 | 48.95212 | 13.04965 | 29722 ft | 414 kts | 207° |
| 2026-05-06 18:01 | 48.90033 | 13.01145 | 29719 ft | 414 kts | 207° |
| 2026-05-06 18:01 | 48.84848 | 12.97315 | 29725 ft | 414 kts | 207° |
| 2026-05-06 18:02 | 48.79677 | 12.93508 | 29356 ft | 412 kts | 207° |
| 2026-05-06 18:02 | 48.77086 | 12.91602 | 29063 ft | 414 kts | 207° |
| 2026-05-06 18:02 | 48.74509 | 12.89641 | 28780 ft | 413 kts | 211° |
| 2026-05-06 18:03 | 48.72150 | 12.87205 | 28506 ft | 411 kts | 219° |
| 2026-05-06 18:03 | 48.70043 | 12.84326 | 28231 ft | 403 kts | 223° |
| 2026-05-06 18:03 | 48.68020 | 12.81495 | 27960 ft | 390 kts | 223° |
| 2026-05-06 18:03 | 48.66050 | 12.78760 | 27691 ft | 379 kts | 222° |
| 2026-05-06 18:04 | 48.64130 | 12.76109 | 27440 ft | 369 kts | 222° |
| 2026-05-06 18:04 | 48.62254 | 12.73528 | 27176 ft | 360 kts | 222° |
| 2026-05-06 18:04 | 48.60419 | 12.71004 | 26918 ft | 353 kts | 222° |
| 2026-05-06 18:04 | 48.58640 | 12.68548 | 26635 ft | 348 kts | 223° |
| 2026-05-06 18:05 | 48.56862 | 12.66084 | 26383 ft | 346 kts | 223° |
| 2026-05-06 18:05 | 48.55096 | 12.63629 | 26125 ft | 344 kts | 223° |
| 2026-05-06 18:05 | 48.53337 | 12.61183 | 25884 ft | 343 kts | 223° |
| 2026-05-06 18:05 | 48.51583 | 12.58749 | 25641 ft | 342 kts | 223° |
| 2026-05-06 18:06 | 48.49833 | 12.56329 | 25387 ft | 341 kts | 223° |
| 2026-05-06 18:06 | 48.48083 | 12.53916 | 25144 ft | 339 kts | 223° |
| 2026-05-06 18:06 | 48.46343 | 12.51519 | 24915 ft | 338 kts | 223° |
| 2026-05-06 18:06 | 48.44608 | 12.49129 | 24673 ft | 337 kts | 223° |
| 2026-05-06 18:07 | 48.42871 | 12.46762 | 24435 ft | 336 kts | 221° |
| 2026-05-06 18:07 | 48.41102 | 12.44453 | 24200 ft | 335 kts | 220° |
| 2026-05-06 18:07 | 48.39328 | 12.42199 | 23957 ft | 333 kts | 220° |
| 2026-05-06 18:07 | 48.37552 | 12.39965 | 23798 ft | 332 kts | 220° |
| 2026-05-06 18:08 | 48.35781 | 12.37738 | 23783 ft | 332 kts | 220° |
| 2026-05-06 18:08 | 48.34032 | 12.35529 | 23785 ft | 332 kts | 220° |
| 2026-05-06 18:08 | 48.32268 | 12.33297 | 23786 ft | 332 kts | 220° |
| 2026-05-06 18:08 | 48.30502 | 12.31058 | 23786 ft | 332 kts | 220° |
| 2026-05-06 18:09 | 48.28737 | 12.28814 | 23657 ft | 331 kts | 221° |
| 2026-05-06 18:09 | 48.26975 | 12.26572 | 23523 ft | 331 kts | 220° |
| 2026-05-06 18:09 | 48.25220 | 12.24340 | 23430 ft | 331 kts | 220° |
| 2026-05-06 18:09 | 48.23411 | 12.22038 | 23305 ft | 353 kts | 220° |
| 2026-05-06 18:10 | 48.21490 | 12.19597 | 23171 ft | 368 kts | 220° |
| 2026-05-06 18:10 | 48.19525 | 12.17107 | 23039 ft | 371 kts | 220° |
| 2026-05-06 18:10 | 48.17550 | 12.14612 | 22906 ft | 371 kts | 220° |
| 2026-05-06 18:10 | 48.15572 | 12.12122 | 22769 ft | 371 kts | 220° |
| 2026-05-06 18:11 | 48.13596 | 12.09637 | 22630 ft | 371 kts | 220° |
| 2026-05-06 18:11 | 48.11625 | 12.07155 | 22498 ft | 370 kts | 220° |
| 2026-05-06 18:11 | 48.09663 | 12.04682 | 22369 ft | 369 kts | 220° |
| 2026-05-06 18:11 | 48.07693 | 12.02205 | 22235 ft | 369 kts | 220° |
| 2026-05-06 18:12 | 48.05733 | 11.99744 | 22100 ft | 368 kts | 220° |
| 2026-05-06 18:12 | 48.03770 | 11.97282 | 21986 ft | 370 kts | 220° |
| 2026-05-06 18:12 | 48.01785 | 11.94795 | 21811 ft | 373 kts | 220° |
| 2026-05-06 18:12 | 47.99815 | 11.92328 | 21506 ft | 361 kts | 220° |
| 2026-05-06 18:13 | 47.97933 | 11.89973 | 20885 ft | 348 kts | 220° |
| 2026-05-06 18:13 | 47.96111 | 11.87701 | 20377 ft | 334 kts | 220° |
| 2026-05-06 18:13 | 47.94370 | 11.85533 | 19944 ft | 319 kts | 220° |
| 2026-05-06 18:13 | 47.92703 | 11.83453 | 19522 ft | 306 kts | 220° |
| 2026-05-06 18:14 | 47.90997 | 11.81580 | 19117 ft | 305 kts | 210° |
| 2026-05-06 18:14 | 47.89047 | 11.80340 | 18704 ft | 306 kts | 197° |
| 2026-05-06 18:14 | 47.86945 | 11.79829 | 18380 ft | 305 kts | 184° |
| 2026-05-06 18:14 | 47.84878 | 11.79742 | 18253 ft | 288 kts | 184° |
| 2026-05-06 18:15 | 47.82935 | 11.79641 | 18011 ft | 273 kts | 185° |
| 2026-05-06 18:15 | 47.81092 | 11.79532 | 17621 ft | 264 kts | 186° |
| 2026-05-06 18:15 | 47.79254 | 11.79418 | 17073 ft | 260 kts | 186° |
| 2026-05-06 18:15 | 47.77487 | 11.79309 | 16627 ft | 254 kts | 186° |
| 2026-05-06 18:16 | 47.75726 | 11.79202 | 16085 ft | 252 kts | 185° |
| 2026-05-06 18:16 | 47.73971 | 11.79098 | 15731 ft | 252 kts | 186° |
| 2026-05-06 18:16 | 47.72221 | 11.78996 | 15411 ft | 252 kts | 186° |
| 2026-05-06 18:16 | 47.70472 | 11.79076 | 15049 ft | 253 kts | 177° |
| 2026-05-06 18:17 | 47.68751 | 11.79673 | 14699 ft | 256 kts | 167° |
| 2026-05-06 18:17 | 47.67082 | 11.80616 | 14364 ft | 256 kts | 165° |
| 2026-05-06 18:17 | 47.65418 | 11.81553 | 14016 ft | 257 kts | 166° |
| 2026-05-06 18:17 | 47.63753 | 11.82490 | 13651 ft | 256 kts | 163° |
| 2026-05-06 18:18 | 47.62268 | 11.84011 | 13311 ft | 269 kts | 136° |
| 2026-05-06 18:18 | 47.61396 | 11.86493 | 12966 ft | 278 kts | 110° |
| 2026-05-06 18:18 | 47.60998 | 11.89314 | 12609 ft | 280 kts | 105° |
| 2026-05-06 18:18 | 47.60668 | 11.92162 | 12270 ft | 280 kts | 104° |
| 2026-05-06 18:19 | 47.60357 | 11.94963 | 11944 ft | 279 kts | 105° |
| 2026-05-06 18:19 | 47.60059 | 11.97819 | 11795 ft | 275 kts | 103° |
| 2026-05-06 18:19 | 47.59752 | 12.00616 | 11800 ft | 275 kts | 104° |
| 2026-05-06 18:19 | 47.59440 | 12.03406 | 11800 ft | 275 kts | 105° |
| 2026-05-06 18:20 | 47.59131 | 12.06204 | 11800 ft | 275 kts | 105° |
| 2026-05-06 18:20 | 47.58842 | 12.08976 | 11808 ft | 276 kts | 104° |
| 2026-05-06 18:20 | 47.58486 | 12.11754 | 11802 ft | 272 kts | 115° |
| 2026-05-06 18:20 | 47.57525 | 12.14044 | 11785 ft | 258 kts | 144° |
| 2026-05-06 18:21 | 47.56009 | 12.15295 | 11797 ft | 247 kts | 169° |
| 2026-05-06 18:21 | 47.54338 | 12.15874 | 11796 ft | 246 kts | 174° |
| 2026-05-06 18:21 | 47.52662 | 12.16359 | 11687 ft | 244 kts | 174° |
| 2026-05-06 18:21 | 47.51001 | 12.16837 | 11422 ft | 243 kts | 174° |
| 2026-05-06 18:22 | 47.49343 | 12.17295 | 11174 ft | 241 kts | 174° |
| 2026-05-06 18:22 | 47.47717 | 12.17737 | 11054 ft | 235 kts | 174° |
| 2026-05-06 18:22 | 47.46131 | 12.18167 | 10922 ft | 229 kts | 174° |
| 2026-05-06 18:22 | 47.44584 | 12.18441 | 10802 ft | 218 kts | 188° |
| 2026-05-06 18:23 | 47.43172 | 12.17851 | 10581 ft | 209 kts | 212° |
| 2026-05-06 18:23 | 47.42111 | 12.16427 | 10300 ft | 207 kts | 235° |
| 2026-05-06 18:23 | 47.41506 | 12.14500 | 9999 ft | 208 kts | 245° |
| 2026-05-06 18:23 | 47.40967 | 12.12514 | 9660 ft | 208 kts | 246° |
| 2026-05-06 18:24 | 47.40429 | 12.10559 | 9503 ft | 206 kts | 245° |
| 2026-05-06 18:24 | 47.40070 | 12.09259 | 9502 ft | 209 kts | 245° |
| 2026-05-06 18:24 | 47.39520 | 12.07271 | 9498 ft | 210 kts | 245° |
| 2026-05-06 18:24 | 47.38968 | 12.05273 | 9497 ft | 210 kts | 245° |
| 2026-05-06 18:25 | 47.38429 | 12.03317 | 9490 ft | 198 kts | 245° |
| 2026-05-06 18:25 | 47.37926 | 12.01484 | 9486 ft | 190 kts | 244° |
| 2026-05-06 18:25 | 47.37423 | 11.99660 | 9498 ft | 193 kts | 244° |
| 2026-05-06 18:25 | 47.36912 | 11.97818 | 9497 ft | 194 kts | 244° |
| 2026-05-06 18:26 | 47.36402 | 11.95980 | 9503 ft | 194 kts | 244° |
| 2026-05-06 18:26 | 47.35892 | 11.94143 | 9504 ft | 192 kts | 245° |
| 2026-05-06 18:26 | 47.35390 | 11.92332 | 9501 ft | 191 kts | 244° |
| 2026-05-06 18:26 | 47.34880 | 11.90495 | 9505 ft | 194 kts | 244° |
| 2026-05-06 18:27 | 47.34373 | 11.88659 | 9505 ft | 194 kts | 244° |
| 2026-05-06 18:27 | 47.33864 | 11.86820 | 9506 ft | 194 kts | 244° |
| 2026-05-06 18:27 | 47.33355 | 11.84983 | 9505 ft | 193 kts | 244° |
| 2026-05-06 18:27 | 47.32814 | 11.83176 | 9498 ft | 193 kts | 244° |
| 2026-05-06 18:28 | 47.32387 | 11.81280 | 9460 ft | 198 kts | 251° |
| 2026-05-06 18:28 | 47.32073 | 11.79306 | 9240 ft | 202 kts | 254° |
| 2026-05-06 18:28 | 47.31789 | 11.77276 | 8908 ft | 202 kts | 255° |
| 2026-05-06 18:28 | 47.31513 | 11.75239 | 8523 ft | 201 kts | 255° |
| 2026-05-06 18:29 | 47.31243 | 11.73244 | 8181 ft | 196 kts | 254° |
| 2026-05-06 18:29 | 47.30978 | 11.71295 | 7858 ft | 194 kts | 254° |
| 2026-05-06 18:29 | 47.30713 | 11.69349 | 7539 ft | 193 kts | 254° |
| 2026-05-06 18:29 | 47.30450 | 11.67415 | 7226 ft | 193 kts | 254° |
| 2026-05-06 18:30 | 47.30187 | 11.65486 | 6907 ft | 191 kts | 255° |
| 2026-05-06 18:30 | 47.29923 | 11.63553 | 6605 ft | 192 kts | 255° |
| 2026-05-06 18:30 | 47.29661 | 11.61638 | 6298 ft | 194 kts | 257° |
| 2026-05-06 18:30 | 47.29394 | 11.59686 | 5971 ft | 195 kts | 256° |
| 2026-05-06 18:31 | 47.29127 | 11.57729 | 5642 ft | 193 kts | 256° |
| 2026-05-06 18:31 | 47.28865 | 11.55820 | 5305 ft | 183 kts | 257° |
| 2026-05-06 18:31 | 47.28625 | 11.54067 | 5028 ft | 165 kts | 257° |
| 2026-05-06 18:31 | 47.28407 | 11.52479 | 4733 ft | 152 kts | 256° |
| 2026-05-06 18:32 | 47.28199 | 11.50969 | 4486 ft | 148 kts | 256° |
| 2026-05-06 18:32 | 47.27995 | 11.49492 | 4251 ft | 146 kts | 257° |
| 2026-05-06 18:32 | 47.27792 | 11.48021 | 4014 ft | 146 kts | 257° |
| 2026-05-06 18:32 | 47.27590 | 11.46564 | 3795 ft | 144 kts | 255° |
| 2026-05-06 18:33 | 47.27329 | 11.45152 | 3504 ft | 142 kts | 254° |
| 2026-05-06 18:33 | 47.27086 | 11.43754 | 3239 ft | 140 kts | 256° |
| 2026-05-06 18:33 | 47.26882 | 11.42351 | 2979 ft | 141 kts | 257° |
| 2026-05-06 18:33 | 47.26723 | 11.40933 | 2724 ft | 141 kts | 260° |
| 2026-05-06 18:34 | 47.26572 | 11.39499 | 2501 ft | 143 kts | 259° |
| 2026-05-06 18:34 | 47.26425 | 11.38042 | 2303 ft | 146 kts | 255° |
| 2026-05-06 18:34 | 47.26257 | 11.36591 | 2054 ft | 146 kts | 254° |
| 2026-05-06 18:34 | 47.26092 | 11.35084 | 1897 ft | 142 kts | 254° |
| 2026-05-06 18:35 | 47.25971 | 11.34013 | 1904 ft | 49 kts | 263° |
| 2026-05-06 18:35 | 47.25955 | 11.33819 | 1904 ft | 20 kts | 263° |
| 2026-05-06 18:35 | 47.25902 | 11.33721 | 1891 ft | 12 kts | 161° |
| 2026-05-06 18:35 | 47.25844 | 11.33815 | 1893 ft | 13 kts | 125° |
| 2026-05-06 18:36 | 47.25792 | 11.33926 | 1893 ft | 14 kts | 122° |
| 2026-05-06 18:36 | 47.25773 | 11.34068 | 1904 ft | 15 kts | 84° |
| 2026-05-06 18:36 | 47.25784 | 11.34180 | 1896 ft | 0 kts | 81° |
| 2026-05-06 18:37 | 47.25787 | 11.34208 | 1899 ft | 7 kts | 81° |
| 2026-05-06 18:37 | 47.25799 | 11.34324 | 1900 ft | 15 kts | 81° |
| 2026-05-06 18:37 | 47.25817 | 11.34490 | 1904 ft | 18 kts | 81° |
| 2026-05-06 18:38 | 47.25835 | 11.34679 | 1904 ft | 20 kts | 83° |
| 2026-05-06 18:38 | 47.25843 | 11.34769 | 1902 ft | 6 kts | 83° |
| 2026-05-06 18:38 | 47.25843 | 11.34842 | 1904 ft | 8 kts | 104° |
| 2026-05-06 18:38 | 47.25819 | 11.34866 | 1894 ft | 5 kts | 163° |
| 2026-05-06 18:39 | 47.25803 | 11.34871 | 1904 ft | 0 kts | 168° |
| 2026-05-06 18:39 | 47.25801 | 11.34872 | 1904 ft | 0 kts | 168° |